sensor_id;sensor_type;location;lat;lon;timestamp;P1;durP1;ratioP1;P2;durP2;ratioP2
9904;SDS011;4991;43.566;27.820;2023-04-15T00:00:48;9.30;;;5.37;;
9904;SDS011;4991;43.566;27.820;2023-04-15T00:03:15;10.67;;;5.50;;
9904;SDS011;4991;43.566;27.820;2023-04-15T00:05:42;6.87;;;3.60;;
9904;SDS011;4991;43.566;27.820;2023-04-15T00:08:08;9.53;;;5.40;;
9904;SDS011;4991;43.566;27.820;2023-04-15T00:10:33;5.63;;;4.00;;
9904;SDS011;4991;43.566;27.820;2023-04-15T00:12:59;10.13;;;4.07;;
9904;SDS011;4991;43.566;27.820;2023-04-15T00:15:26;7.53;;;3.70;;
9904;SDS011;4991;43.566;27.820;2023-04-15T00:17:52;5.27;;;2.90;;
9904;SDS011;4991;43.566;27.820;2023-04-15T00:20:17;8.03;;;3.90;;
9904;SDS011;4991;43.566;27.820;2023-04-15T00:22:43;4.83;;;3.37;;
9904;SDS011;4991;43.566;27.820;2023-04-15T00:25:09;6.53;;;3.20;;
9904;SDS011;4991;43.566;27.820;2023-04-15T00:27:34;7.03;;;3.37;;
9904;SDS011;4991;43.566;27.820;2023-04-15T00:30:00;6.13;;;3.60;;
9904;SDS011;4991;43.566;27.820;2023-04-15T00:32:26;13.40;;;3.93;;
9904;SDS011;4991;43.566;27.820;2023-04-15T00:34:52;5.77;;;3.50;;
9904;SDS011;4991;43.566;27.820;2023-04-15T00:37:18;7.40;;;3.63;;
9904;SDS011;4991;43.566;27.820;2023-04-15T00:39:43;8.53;;;3.57;;
9904;SDS011;4991;43.566;27.820;2023-04-15T00:42:09;7.03;;;3.90;;
9904;SDS011;4991;43.566;27.820;2023-04-15T00:44:35;4.20;;;3.03;;
9904;SDS011;4991;43.566;27.820;2023-04-15T00:47:00;7.10;;;3.83;;
9904;SDS011;4991;43.566;27.820;2023-04-15T00:49:28;4.93;;;3.07;;
9904;SDS011;4991;43.566;27.820;2023-04-15T00:51:54;7.50;;;3.40;;
9904;SDS011;4991;43.566;27.820;2023-04-15T00:54:20;5.07;;;3.00;;
9904;SDS011;4991;43.566;27.820;2023-04-15T00:56:46;5.57;;;2.80;;
9904;SDS011;4991;43.566;27.820;2023-04-15T00:59:12;4.87;;;2.87;;
9904;SDS011;4991;43.566;27.820;2023-04-15T01:01:39;3.63;;;2.60;;
9904;SDS011;4991;43.566;27.820;2023-04-15T01:04:05;2.83;;;2.13;;
9904;SDS011;4991;43.566;27.820;2023-04-15T01:06:31;4.70;;;2.50;;
9904;SDS011;4991;43.566;27.820;2023-04-15T01:08:57;5.93;;;2.43;;
9904;SDS011;4991;43.566;27.820;2023-04-15T01:11:24;4.60;;;2.70;;
9904;SDS011;4991;43.566;27.820;2023-04-15T01:13:50;3.93;;;2.10;;
9904;SDS011;4991;43.566;27.820;2023-04-15T01:16:17;3.70;;;2.37;;
9904;SDS011;4991;43.566;27.820;2023-04-15T01:18:43;3.80;;;2.30;;
9904;SDS011;4991;43.566;27.820;2023-04-15T01:21:09;3.40;;;2.43;;
9904;SDS011;4991;43.566;27.820;2023-04-15T01:23:35;5.17;;;2.63;;
9904;SDS011;4991;43.566;27.820;2023-04-15T01:26:05;3.63;;;1.90;;
9904;SDS011;4991;43.566;27.820;2023-04-15T01:28:37;4.50;;;2.10;;
9904;SDS011;4991;43.566;27.820;2023-04-15T01:31:06;3.73;;;2.30;;
9904;SDS011;4991;43.566;27.820;2023-04-15T01:33:33;4.07;;;2.37;;
9904;SDS011;4991;43.566;27.820;2023-04-15T01:35:58;3.93;;;3.10;;
9904;SDS011;4991;43.566;27.820;2023-04-15T01:38:25;3.07;;;1.80;;
9904;SDS011;4991;43.566;27.820;2023-04-15T01:40:52;3.27;;;1.80;;
9904;SDS011;4991;43.566;27.820;2023-04-15T01:43:18;3.03;;;1.70;;
9904;SDS011;4991;43.566;27.820;2023-04-15T01:45:43;5.80;;;1.87;;
9904;SDS011;4991;43.566;27.820;2023-04-15T01:48:09;4.47;;;1.60;;
9904;SDS011;4991;43.566;27.820;2023-04-15T01:50:35;5.30;;;1.97;;
9904;SDS011;4991;43.566;27.820;2023-04-15T01:53:02;3.63;;;1.83;;
9904;SDS011;4991;43.566;27.820;2023-04-15T01:55:28;5.33;;;2.43;;
9904;SDS011;4991;43.566;27.820;2023-04-15T01:57:55;7.10;;;3.47;;
9904;SDS011;4991;43.566;27.820;2023-04-15T02:00:20;4.70;;;2.40;;
9904;SDS011;4991;43.566;27.820;2023-04-15T02:02:47;5.47;;;2.50;;
9904;SDS011;4991;43.566;27.820;2023-04-15T02:05:13;4.03;;;2.60;;
9904;SDS011;4991;43.566;27.820;2023-04-15T02:07:38;7.67;;;2.97;;
9904;SDS011;4991;43.566;27.820;2023-04-15T02:10:04;4.43;;;2.20;;
9904;SDS011;4991;43.566;27.820;2023-04-15T02:12:30;5.03;;;2.80;;
9904;SDS011;4991;43.566;27.820;2023-04-15T02:14:55;4.20;;;2.53;;
9904;SDS011;4991;43.566;27.820;2023-04-15T02:17:21;5.20;;;2.53;;
9904;SDS011;4991;43.566;27.820;2023-04-15T02:19:47;7.00;;;3.00;;
9904;SDS011;4991;43.566;27.820;2023-04-15T02:22:13;8.30;;;3.10;;
9904;SDS011;4991;43.566;27.820;2023-04-15T02:24:42;8.03;;;2.80;;
9904;SDS011;4991;43.566;27.820;2023-04-15T02:27:14;3.97;;;2.50;;
9904;SDS011;4991;43.566;27.820;2023-04-15T02:29:42;3.77;;;2.23;;
9904;SDS011;4991;43.566;27.820;2023-04-15T02:32:08;7.33;;;3.97;;
9904;SDS011;4991;43.566;27.820;2023-04-15T02:34:35;9.77;;;3.30;;
9904;SDS011;4991;43.566;27.820;2023-04-15T02:37:02;8.63;;;2.97;;
9904;SDS011;4991;43.566;27.820;2023-04-15T02:39:28;8.17;;;2.63;;
9904;SDS011;4991;43.566;27.820;2023-04-15T02:41:54;6.10;;;2.73;;
9904;SDS011;4991;43.566;27.820;2023-04-15T02:44:21;5.80;;;2.57;;
9904;SDS011;4991;43.566;27.820;2023-04-15T02:46:47;10.43;;;2.70;;
9904;SDS011;4991;43.566;27.820;2023-04-15T02:49:16;6.73;;;2.50;;
9904;SDS011;4991;43.566;27.820;2023-04-15T02:51:43;5.90;;;3.30;;
9904;SDS011;4991;43.566;27.820;2023-04-15T02:54:14;8.23;;;2.67;;
9904;SDS011;4991;43.566;27.820;2023-04-15T02:56:41;6.07;;;2.67;;
9904;SDS011;4991;43.566;27.820;2023-04-15T02:59:06;5.40;;;2.67;;
9904;SDS011;4991;43.566;27.820;2023-04-15T03:01:32;9.37;;;3.17;;
9904;SDS011;4991;43.566;27.820;2023-04-15T03:03:57;6.43;;;3.00;;
9904;SDS011;4991;43.566;27.820;2023-04-15T03:06:23;10.87;;;3.23;;
9904;SDS011;4991;43.566;27.820;2023-04-15T03:08:49;6.50;;;2.60;;
9904;SDS011;4991;43.566;27.820;2023-04-15T03:11:15;4.63;;;2.60;;
9904;SDS011;4991;43.566;27.820;2023-04-15T03:13:41;6.93;;;2.87;;
9904;SDS011;4991;43.566;27.820;2023-04-15T03:16:07;5.30;;;2.97;;
9904;SDS011;4991;43.566;27.820;2023-04-15T03:18:35;10.77;;;3.03;;
9904;SDS011;4991;43.566;27.820;2023-04-15T03:21:01;7.60;;;2.93;;
9904;SDS011;4991;43.566;27.820;2023-04-15T03:23:27;6.00;;;2.60;;
9904;SDS011;4991;43.566;27.820;2023-04-15T03:25:53;8.93;;;2.83;;
9904;SDS011;4991;43.566;27.820;2023-04-15T03:28:22;8.10;;;3.77;;
9904;SDS011;4991;43.566;27.820;2023-04-15T03:30:47;6.87;;;2.93;;
9904;SDS011;4991;43.566;27.820;2023-04-15T03:33:13;9.83;;;2.93;;
9904;SDS011;4991;43.566;27.820;2023-04-15T03:35:38;9.57;;;3.40;;
9904;SDS011;4991;43.566;27.820;2023-04-15T03:38:04;8.20;;;3.30;;
9904;SDS011;4991;43.566;27.820;2023-04-15T03:40:30;7.30;;;3.03;;
9904;SDS011;4991;43.566;27.820;2023-04-15T03:42:55;9.80;;;3.53;;
9904;SDS011;4991;43.566;27.820;2023-04-15T03:45:21;9.37;;;3.80;;
9904;SDS011;4991;43.566;27.820;2023-04-15T03:47:46;13.53;;;4.03;;
9904;SDS011;4991;43.566;27.820;2023-04-15T03:50:13;8.97;;;5.17;;
9904;SDS011;4991;43.566;27.820;2023-04-15T03:52:39;16.37;;;6.07;;
9904;SDS011;4991;43.566;27.820;2023-04-15T03:55:05;17.50;;;7.50;;
9904;SDS011;4991;43.566;27.820;2023-04-15T03:57:31;13.77;;;6.20;;
9904;SDS011;4991;43.566;27.820;2023-04-15T04:00:02;16.70;;;7.10;;
9904;SDS011;4991;43.566;27.820;2023-04-15T04:02:29;11.97;;;6.27;;
9904;SDS011;4991;43.566;27.820;2023-04-15T04:04:54;18.30;;;6.23;;
9904;SDS011;4991;43.566;27.820;2023-04-15T04:07:22;12.73;;;5.20;;
9904;SDS011;4991;43.566;27.820;2023-04-15T04:09:49;17.03;;;5.70;;
9904;SDS011;4991;43.566;27.820;2023-04-15T04:12:14;12.80;;;4.60;;
9904;SDS011;4991;43.566;27.820;2023-04-15T04:14:40;11.07;;;5.70;;
9904;SDS011;4991;43.566;27.820;2023-04-15T04:17:06;13.40;;;4.73;;
9904;SDS011;4991;43.566;27.820;2023-04-15T04:19:32;11.10;;;5.03;;
9904;SDS011;4991;43.566;27.820;2023-04-15T04:21:58;11.80;;;5.10;;
9904;SDS011;4991;43.566;27.820;2023-04-15T04:24:24;11.17;;;4.80;;
9904;SDS011;4991;43.566;27.820;2023-04-15T04:26:49;16.57;;;4.93;;
9904;SDS011;4991;43.566;27.820;2023-04-15T04:29:15;14.17;;;4.60;;
9904;SDS011;4991;43.566;27.820;2023-04-15T04:31:40;11.07;;;4.80;;
9904;SDS011;4991;43.566;27.820;2023-04-15T04:34:06;11.67;;;4.90;;
9904;SDS011;4991;43.566;27.820;2023-04-15T04:36:32;17.63;;;6.20;;
9904;SDS011;4991;43.566;27.820;2023-04-15T04:38:57;14.97;;;5.20;;
9904;SDS011;4991;43.566;27.820;2023-04-15T04:41:24;12.87;;;5.13;;
9904;SDS011;4991;43.566;27.820;2023-04-15T04:43:49;12.23;;;4.93;;
9904;SDS011;4991;43.566;27.820;2023-04-15T04:46:15;13.37;;;4.70;;
9904;SDS011;4991;43.566;27.820;2023-04-15T04:48:41;13.47;;;5.33;;
9904;SDS011;4991;43.566;27.820;2023-04-15T04:51:07;15.70;;;5.80;;
9904;SDS011;4991;43.566;27.820;2023-04-15T04:53:33;8.17;;;4.47;;
9904;SDS011;4991;43.566;27.820;2023-04-15T04:56:01;17.20;;;5.10;;
9904;SDS011;4991;43.566;27.820;2023-04-15T04:58:27;14.23;;;4.90;;
9904;SDS011;4991;43.566;27.820;2023-04-15T05:00:53;12.80;;;5.57;;
9904;SDS011;4991;43.566;27.820;2023-04-15T05:03:18;11.63;;;5.53;;
9904;SDS011;4991;43.566;27.820;2023-04-15T05:05:45;13.33;;;6.00;;
9904;SDS011;4991;43.566;27.820;2023-04-15T05:08:10;11.70;;;5.83;;
9904;SDS011;4991;43.566;27.820;2023-04-15T05:10:36;17.63;;;5.87;;
9904;SDS011;4991;43.566;27.820;2023-04-15T05:13:01;16.63;;;5.47;;
9904;SDS011;4991;43.566;27.820;2023-04-15T05:15:27;12.57;;;6.30;;
9904;SDS011;4991;43.566;27.820;2023-04-15T05:17:53;13.73;;;5.53;;
9904;SDS011;4991;43.566;27.820;2023-04-15T05:20:19;13.07;;;5.00;;
9904;SDS011;4991;43.566;27.820;2023-04-15T05:22:45;13.80;;;5.20;;
9904;SDS011;4991;43.566;27.820;2023-04-15T05:25:10;16.13;;;6.23;;
9904;SDS011;4991;43.566;27.820;2023-04-15T05:27:36;15.93;;;6.50;;
9904;SDS011;4991;43.566;27.820;2023-04-15T05:30:03;12.60;;;6.13;;
9904;SDS011;4991;43.566;27.820;2023-04-15T05:32:31;13.53;;;5.97;;
9904;SDS011;4991;43.566;27.820;2023-04-15T05:34:57;16.63;;;5.47;;
9904;SDS011;4991;43.566;27.820;2023-04-15T05:37:23;15.07;;;5.70;;
9904;SDS011;4991;43.566;27.820;2023-04-15T05:39:50;15.93;;;5.77;;
9904;SDS011;4991;43.566;27.820;2023-04-15T05:42:16;12.50;;;6.10;;
9904;SDS011;4991;43.566;27.820;2023-04-15T05:44:41;14.83;;;5.63;;
9904;SDS011;4991;43.566;27.820;2023-04-15T05:47:07;13.47;;;5.43;;
9904;SDS011;4991;43.566;27.820;2023-04-15T05:49:34;13.30;;;6.07;;
9904;SDS011;4991;43.566;27.820;2023-04-15T05:52:00;10.67;;;5.97;;
9904;SDS011;4991;43.566;27.820;2023-04-15T05:54:26;13.50;;;7.03;;
9904;SDS011;4991;43.566;27.820;2023-04-15T05:56:52;11.37;;;7.13;;
9904;SDS011;4991;43.566;27.820;2023-04-15T05:59:18;13.57;;;7.20;;
9904;SDS011;4991;43.566;27.820;2023-04-15T06:01:43;14.07;;;8.10;;
9904;SDS011;4991;43.566;27.820;2023-04-15T06:04:09;12.87;;;7.47;;
9904;SDS011;4991;43.566;27.820;2023-04-15T06:06:35;13.97;;;8.53;;
9904;SDS011;4991;43.566;27.820;2023-04-15T06:09:02;14.60;;;9.00;;
9904;SDS011;4991;43.566;27.820;2023-04-15T06:11:29;20.10;;;9.20;;
9904;SDS011;4991;43.566;27.820;2023-04-15T06:13:55;16.43;;;9.30;;
9904;SDS011;4991;43.566;27.820;2023-04-15T06:16:20;11.70;;;8.20;;
9904;SDS011;4991;43.566;27.820;2023-04-15T06:18:47;11.93;;;7.77;;
9904;SDS011;4991;43.566;27.820;2023-04-15T06:21:14;13.67;;;7.53;;
9904;SDS011;4991;43.566;27.820;2023-04-15T06:23:40;11.83;;;8.17;;
9904;SDS011;4991;43.566;27.820;2023-04-15T06:26:06;14.13;;;7.87;;
9904;SDS011;4991;43.566;27.820;2023-04-15T06:28:33;13.90;;;7.73;;
9904;SDS011;4991;43.566;27.820;2023-04-15T06:30:58;14.93;;;7.63;;
9904;SDS011;4991;43.566;27.820;2023-04-15T06:33:25;14.23;;;8.20;;
9904;SDS011;4991;43.566;27.820;2023-04-15T06:35:51;13.63;;;8.60;;
9904;SDS011;4991;43.566;27.820;2023-04-15T06:38:16;15.03;;;8.27;;
9904;SDS011;4991;43.566;27.820;2023-04-15T06:40:42;17.20;;;8.60;;
9904;SDS011;4991;43.566;27.820;2023-04-15T06:43:08;12.90;;;8.17;;
9904;SDS011;4991;43.566;27.820;2023-04-15T06:45:34;14.77;;;8.17;;
9904;SDS011;4991;43.566;27.820;2023-04-15T06:47:59;14.57;;;8.07;;
9904;SDS011;4991;43.566;27.820;2023-04-15T06:50:25;14.90;;;8.67;;
9904;SDS011;4991;43.566;27.820;2023-04-15T06:52:52;13.33;;;8.03;;
9904;SDS011;4991;43.566;27.820;2023-04-15T06:55:18;19.30;;;8.50;;
9904;SDS011;4991;43.566;27.820;2023-04-15T06:57:44;16.30;;;8.23;;
9904;SDS011;4991;43.566;27.820;2023-04-15T07:00:10;11.80;;;6.37;;
9904;SDS011;4991;43.566;27.820;2023-04-15T07:02:36;15.67;;;8.87;;
9904;SDS011;4991;43.566;27.820;2023-04-15T07:05:02;15.50;;;7.20;;
9904;SDS011;4991;43.566;27.820;2023-04-15T07:07:29;14.60;;;9.90;;
9904;SDS011;4991;43.566;27.820;2023-04-15T07:09:54;13.37;;;7.00;;
9904;SDS011;4991;43.566;27.820;2023-04-15T07:12:20;20.73;;;10.03;;
9904;SDS011;4991;43.566;27.820;2023-04-15T07:14:46;13.40;;;7.67;;
9904;SDS011;4991;43.566;27.820;2023-04-15T07:17:11;12.37;;;6.47;;
9904;SDS011;4991;43.566;27.820;2023-04-15T07:19:38;12.40;;;5.30;;
9904;SDS011;4991;43.566;27.820;2023-04-15T07:22:03;14.90;;;6.10;;
9904;SDS011;4991;43.566;27.820;2023-04-15T07:24:29;8.93;;;5.27;;
9904;SDS011;4991;43.566;27.820;2023-04-15T07:26:55;11.47;;;6.07;;
9904;SDS011;4991;43.566;27.820;2023-04-15T07:29:22;11.23;;;4.93;;
9904;SDS011;4991;43.566;27.820;2023-04-15T07:31:48;6.43;;;4.67;;
9904;SDS011;4991;43.566;27.820;2023-04-15T07:34:14;7.33;;;3.80;;
9904;SDS011;4991;43.566;27.820;2023-04-15T07:36:41;10.17;;;4.70;;
9904;SDS011;4991;43.566;27.820;2023-04-15T07:39:07;9.07;;;4.33;;
9904;SDS011;4991;43.566;27.820;2023-04-15T07:41:32;11.27;;;4.70;;
9904;SDS011;4991;43.566;27.820;2023-04-15T07:43:58;6.27;;;3.47;;
9904;SDS011;4991;43.566;27.820;2023-04-15T07:46:24;6.40;;;3.53;;
9904;SDS011;4991;43.566;27.820;2023-04-15T07:48:52;5.37;;;3.03;;
9904;SDS011;4991;43.566;27.820;2023-04-15T07:51:18;5.83;;;3.33;;
9904;SDS011;4991;43.566;27.820;2023-04-15T07:53:45;6.00;;;3.60;;
9904;SDS011;4991;43.566;27.820;2023-04-15T07:56:12;7.83;;;3.47;;
9904;SDS011;4991;43.566;27.820;2023-04-15T07:58:40;8.47;;;3.67;;
9904;SDS011;4991;43.566;27.820;2023-04-15T08:01:06;8.73;;;3.83;;
9904;SDS011;4991;43.566;27.820;2023-04-15T08:03:32;10.63;;;3.73;;
9904;SDS011;4991;43.566;27.820;2023-04-15T08:05:58;11.70;;;4.50;;
9904;SDS011;4991;43.566;27.820;2023-04-15T08:08:24;9.90;;;4.30;;
9904;SDS011;4991;43.566;27.820;2023-04-15T08:10:50;12.43;;;3.43;;
9904;SDS011;4991;43.566;27.820;2023-04-15T08:13:16;6.77;;;3.43;;
9904;SDS011;4991;43.566;27.820;2023-04-15T08:15:43;8.03;;;3.33;;
9904;SDS011;4991;43.566;27.820;2023-04-15T08:18:09;11.93;;;4.20;;
9904;SDS011;4991;43.566;27.820;2023-04-15T08:20:35;7.10;;;3.10;;
9904;SDS011;4991;43.566;27.820;2023-04-15T08:23:02;6.87;;;3.60;;
9904;SDS011;4991;43.566;27.820;2023-04-15T08:25:28;9.40;;;3.17;;
9904;SDS011;4991;43.566;27.820;2023-04-15T08:27:54;5.80;;;3.30;;
9904;SDS011;4991;43.566;27.820;2023-04-15T08:30:22;10.00;;;4.57;;
9904;SDS011;4991;43.566;27.820;2023-04-15T08:32:49;9.03;;;4.03;;
9904;SDS011;4991;43.566;27.820;2023-04-15T08:35:15;8.07;;;4.30;;
9904;SDS011;4991;43.566;27.820;2023-04-15T08:37:41;7.33;;;4.30;;
9904;SDS011;4991;43.566;27.820;2023-04-15T08:40:07;9.93;;;3.70;;
9904;SDS011;4991;43.566;27.820;2023-04-15T08:42:40;6.97;;;3.47;;
9904;SDS011;4991;43.566;27.820;2023-04-15T08:45:09;4.60;;;3.03;;
9904;SDS011;4991;43.566;27.820;2023-04-15T08:47:37;6.77;;;3.73;;
9904;SDS011;4991;43.566;27.820;2023-04-15T08:50:04;17.10;;;4.40;;
9904;SDS011;4991;43.566;27.820;2023-04-15T08:52:33;8.97;;;3.73;;
9904;SDS011;4991;43.566;27.820;2023-04-15T08:54:59;6.00;;;2.47;;
9904;SDS011;4991;43.566;27.820;2023-04-15T08:57:27;3.10;;;1.90;;
9904;SDS011;4991;43.566;27.820;2023-04-15T08:59:54;2.60;;;1.97;;
9904;SDS011;4991;43.566;27.820;2023-04-15T09:02:21;6.53;;;2.80;;
9904;SDS011;4991;43.566;27.820;2023-04-15T09:04:48;7.37;;;3.47;;
9904;SDS011;4991;43.566;27.820;2023-04-15T09:07:14;4.50;;;2.10;;
9904;SDS011;4991;43.566;27.820;2023-04-15T09:09:39;5.23;;;1.93;;
9904;SDS011;4991;43.566;27.820;2023-04-15T09:12:06;4.70;;;1.77;;
9904;SDS011;4991;43.566;27.820;2023-04-15T09:14:33;5.53;;;2.30;;
9904;SDS011;4991;43.566;27.820;2023-04-15T09:17:00;7.23;;;3.80;;
9904;SDS011;4991;43.566;27.820;2023-04-15T09:19:27;4.87;;;2.20;;
9904;SDS011;4991;43.566;27.820;2023-04-15T09:21:54;6.70;;;1.90;;
9904;SDS011;4991;43.566;27.820;2023-04-15T09:24:24;3.83;;;1.97;;
9904;SDS011;4991;43.566;27.820;2023-04-15T09:26:52;4.43;;;2.60;;
9904;SDS011;4991;43.566;27.820;2023-04-15T09:29:20;4.67;;;1.80;;
9904;SDS011;4991;43.566;27.820;2023-04-15T09:31:49;9.87;;;2.63;;
9904;SDS011;4991;43.566;27.820;2023-04-15T09:34:15;5.67;;;2.37;;
9904;SDS011;4991;43.566;27.820;2023-04-15T09:39:10;7.10;;;2.57;;
9904;SDS011;4991;43.566;27.820;2023-04-15T09:41:36;4.43;;;2.20;;
9904;SDS011;4991;43.566;27.820;2023-04-15T09:44:02;6.83;;;3.13;;
9904;SDS011;4991;43.566;27.820;2023-04-15T09:46:41;5.87;;;2.23;;
9904;SDS011;4991;43.566;27.820;2023-04-15T09:49:07;7.83;;;2.50;;
9904;SDS011;4991;43.566;27.820;2023-04-15T09:51:35;3.57;;;2.33;;
9904;SDS011;4991;43.566;27.820;2023-04-15T09:54:01;5.33;;;2.47;;
9904;SDS011;4991;43.566;27.820;2023-04-15T09:56:35;3.70;;;2.40;;
9904;SDS011;4991;43.566;27.820;2023-04-15T09:59:03;4.17;;;2.47;;
9904;SDS011;4991;43.566;27.820;2023-04-15T10:01:30;4.83;;;2.73;;
9904;SDS011;4991;43.566;27.820;2023-04-15T10:03:56;2.83;;;2.10;;
9904;SDS011;4991;43.566;27.820;2023-04-15T10:06:29;3.53;;;2.10;;
9904;SDS011;4991;43.566;27.820;2023-04-15T10:08:56;3.77;;;1.97;;
9904;SDS011;4991;43.566;27.820;2023-04-15T10:11:23;4.97;;;2.60;;
9904;SDS011;4991;43.566;27.820;2023-04-15T10:13:49;4.37;;;2.37;;
9904;SDS011;4991;43.566;27.820;2023-04-15T10:16:18;4.83;;;3.30;;
9904;SDS011;4991;43.566;27.820;2023-04-15T10:18:46;7.43;;;2.87;;
9904;SDS011;4991;43.566;27.820;2023-04-15T10:21:16;5.17;;;2.43;;
9904;SDS011;4991;43.566;27.820;2023-04-15T10:23:44;8.17;;;2.90;;
9904;SDS011;4991;43.566;27.820;2023-04-15T10:26:10;4.47;;;2.83;;
9904;SDS011;4991;43.566;27.820;2023-04-15T10:28:39;4.60;;;2.10;;
9904;SDS011;4991;43.566;27.820;2023-04-15T10:31:08;6.80;;;2.40;;
9904;SDS011;4991;43.566;27.820;2023-04-15T10:33:38;4.57;;;2.63;;
9904;SDS011;4991;43.566;27.820;2023-04-15T10:36:04;5.47;;;2.40;;
9904;SDS011;4991;43.566;27.820;2023-04-15T10:43:39;4.57;;;1.83;;
9904;SDS011;4991;43.566;27.820;2023-04-15T10:46:09;4.53;;;2.07;;
9904;SDS011;4991;43.566;27.820;2023-04-15T10:48:35;3.67;;;2.07;;
9904;SDS011;4991;43.566;27.820;2023-04-15T10:51:01;5.83;;;2.00;;
9904;SDS011;4991;43.566;27.820;2023-04-15T10:53:28;3.30;;;2.37;;
9904;SDS011;4991;43.566;27.820;2023-04-15T10:55:55;7.93;;;2.97;;
9904;SDS011;4991;43.566;27.820;2023-04-15T10:58:22;7.23;;;2.70;;
9904;SDS011;4991;43.566;27.820;2023-04-15T11:00:50;5.47;;;2.15;;
9904;SDS011;4991;43.566;27.820;2023-04-15T11:03:33;5.15;;;2.35;;
9904;SDS011;4991;43.566;27.820;2023-04-15T11:06:02;4.22;;;2.20;;
9904;SDS011;4991;43.566;27.820;2023-04-15T11:09:01;6.20;;;1.98;;
9904;SDS011;4991;43.566;27.820;2023-04-15T11:11:21;3.92;;;1.75;;
9904;SDS011;4991;43.566;27.820;2023-04-15T11:13:50;3.35;;;1.65;;
9904;SDS011;4991;43.566;27.820;2023-04-15T11:16:16;4.13;;;1.92;;
9904;SDS011;4991;43.566;27.820;2023-04-15T11:18:52;5.15;;;2.03;;
9904;SDS011;4991;43.566;27.820;2023-04-15T11:21:19;2.63;;;2.00;;
9904;SDS011;4991;43.566;27.820;2023-04-15T11:23:50;3.45;;;2.00;;
9904;SDS011;4991;43.566;27.820;2023-04-15T11:26:16;3.80;;;1.80;;
9904;SDS011;4991;43.566;27.820;2023-04-15T11:28:43;6.40;;;2.00;;
9904;SDS011;4991;43.566;27.820;2023-04-15T11:31:10;2.95;;;1.60;;
9904;SDS011;4991;43.566;27.820;2023-04-15T11:33:52;3.05;;;1.60;;
9904;SDS011;4991;43.566;27.820;2023-04-15T11:36:18;2.95;;;2.08;;
9904;SDS011;4991;43.566;27.820;2023-04-15T11:38:47;3.65;;;1.92;;
9904;SDS011;4991;43.566;27.820;2023-04-15T11:41:13;4.38;;;1.98;;
9904;SDS011;4991;43.566;27.820;2023-04-15T11:43:38;3.80;;;1.85;;
9904;SDS011;4991;43.566;27.820;2023-04-15T11:46:04;2.20;;;1.67;;
9904;SDS011;4991;43.566;27.820;2023-04-15T11:48:34;4.38;;;2.15;;
9904;SDS011;4991;43.566;27.820;2023-04-15T11:51:04;3.33;;;2.25;;
9904;SDS011;4991;43.566;27.820;2023-04-15T11:53:49;4.25;;;1.92;;
9904;SDS011;4991;43.566;27.820;2023-04-15T11:56:17;2.75;;;2.30;;
9904;SDS011;4991;43.566;27.820;2023-04-15T11:58:46;7.00;;;2.10;;
9904;SDS011;4991;43.566;27.820;2023-04-15T12:01:15;4.53;;;2.03;;
9904;SDS011;4991;43.566;27.820;2023-04-15T12:03:41;4.85;;;2.03;;
9904;SDS011;4991;43.566;27.820;2023-04-15T12:11:17;1.85;;;1.60;;
9904;SDS011;4991;43.566;27.820;2023-04-15T12:13:47;7.75;;;2.00;;
9904;SDS011;4991;43.566;27.820;2023-04-15T12:16:16;3.35;;;1.88;;
9904;SDS011;4991;43.566;27.820;2023-04-15T12:18:46;3.85;;;1.90;;
9904;SDS011;4991;43.566;27.820;2023-04-15T12:21:23;8.55;;;1.92;;
9904;SDS011;4991;43.566;27.820;2023-04-15T12:23:52;5.10;;;2.10;;
9904;SDS011;4991;43.566;27.820;2023-04-15T12:26:26;2.80;;;1.77;;
9904;SDS011;4991;43.566;27.820;2023-04-15T12:31:31;4.65;;;2.35;;
9904;SDS011;4991;43.566;27.820;2023-04-15T12:34:10;3.78;;;1.80;;
9904;SDS011;4991;43.566;27.820;2023-04-15T12:36:36;3.67;;;1.75;;
9904;SDS011;4991;43.566;27.820;2023-04-15T12:39:02;2.83;;;1.52;;
9904;SDS011;4991;43.566;27.820;2023-04-15T12:41:29;5.43;;;2.20;;
9904;SDS011;4991;43.566;27.820;2023-04-15T12:43:55;5.13;;;1.85;;
9904;SDS011;4991;43.566;27.820;2023-04-15T12:46:21;2.53;;;1.95;;
9904;SDS011;4991;43.566;27.820;2023-04-15T12:48:47;4.03;;;1.80;;
9904;SDS011;4991;43.566;27.820;2023-04-15T12:51:15;5.80;;;2.38;;
9904;SDS011;4991;43.566;27.820;2023-04-15T12:53:41;3.58;;;1.98;;
9904;SDS011;4991;43.566;27.820;2023-04-15T12:56:06;3.97;;;2.05;;
9904;SDS011;4991;43.566;27.820;2023-04-15T12:58:32;5.40;;;2.15;;
9904;SDS011;4991;43.566;27.820;2023-04-15T13:00:58;2.47;;;1.70;;
9904;SDS011;4991;43.566;27.820;2023-04-15T13:03:24;3.38;;;1.52;;
9904;SDS011;4991;43.566;27.820;2023-04-15T13:05:50;4.20;;;1.67;;
9904;SDS011;4991;43.566;27.820;2023-04-15T13:08:16;1.95;;;1.70;;
9904;SDS011;4991;43.566;27.820;2023-04-15T13:10:42;2.55;;;1.73;;
9904;SDS011;4991;43.566;27.820;2023-04-15T13:13:07;4.03;;;1.60;;
9904;SDS011;4991;43.566;27.820;2023-04-15T13:15:33;3.40;;;1.67;;
9904;SDS011;4991;43.566;27.820;2023-04-15T13:17:59;4.55;;;1.80;;
9904;SDS011;4991;43.566;27.820;2023-04-15T13:20:26;3.30;;;2.03;;
9904;SDS011;4991;43.566;27.820;2023-04-15T13:22:52;5.05;;;2.13;;
9904;SDS011;4991;43.566;27.820;2023-04-15T13:25:18;4.78;;;2.15;;
9904;SDS011;4991;43.566;27.820;2023-04-15T13:27:44;3.33;;;1.83;;
9904;SDS011;4991;43.566;27.820;2023-04-15T13:30:10;6.03;;;1.80;;
9904;SDS011;4991;43.566;27.820;2023-04-15T13:32:36;5.18;;;1.90;;
9904;SDS011;4991;43.566;27.820;2023-04-15T13:35:02;3.65;;;1.45;;
9904;SDS011;4991;43.566;27.820;2023-04-15T13:37:29;3.40;;;1.80;;
9904;SDS011;4991;43.566;27.820;2023-04-15T13:39:55;5.20;;;2.00;;
9904;SDS011;4991;43.566;27.820;2023-04-15T13:42:24;2.92;;;2.10;;
9904;SDS011;4991;43.566;27.820;2023-04-15T13:44:50;2.88;;;1.83;;
9904;SDS011;4991;43.566;27.820;2023-04-15T13:47:16;4.38;;;2.05;;
9904;SDS011;4991;43.566;27.820;2023-04-15T13:49:43;5.47;;;2.53;;
9904;SDS011;4991;43.566;27.820;2023-04-15T13:52:09;4.10;;;1.98;;
9904;SDS011;4991;43.566;27.820;2023-04-15T13:54:35;5.07;;;2.05;;
9904;SDS011;4991;43.566;27.820;2023-04-15T13:57:01;4.22;;;2.00;;
9904;SDS011;4991;43.566;27.820;2023-04-15T13:59:27;3.75;;;2.08;;
9904;SDS011;4991;43.566;27.820;2023-04-15T14:01:52;5.28;;;2.45;;
9904;SDS011;4991;43.566;27.820;2023-04-15T14:04:18;4.68;;;2.63;;
9904;SDS011;4991;43.566;27.820;2023-04-15T14:06:43;4.20;;;2.03;;
9904;SDS011;4991;43.566;27.820;2023-04-15T14:09:09;5.22;;;2.45;;
9904;SDS011;4991;43.566;27.820;2023-04-15T14:11:37;5.47;;;2.30;;
9904;SDS011;4991;43.566;27.820;2023-04-15T14:14:03;3.70;;;2.10;;
9904;SDS011;4991;43.566;27.820;2023-04-15T14:16:31;8.20;;;2.33;;
9904;SDS011;4991;43.566;27.820;2023-04-15T14:18:57;5.35;;;2.45;;
9904;SDS011;4991;43.566;27.820;2023-04-15T14:21:23;5.35;;;1.83;;
9904;SDS011;4991;43.566;27.820;2023-04-15T14:23:50;3.78;;;2.03;;
9904;SDS011;4991;43.566;27.820;2023-04-15T14:26:15;4.63;;;2.30;;
9904;SDS011;4991;43.566;27.820;2023-04-15T14:28:41;5.75;;;2.50;;
9904;SDS011;4991;43.566;27.820;2023-04-15T14:31:08;7.90;;;3.53;;
9904;SDS011;4991;43.566;27.820;2023-04-15T14:33:34;3.92;;;2.35;;
9904;SDS011;4991;43.566;27.820;2023-04-15T14:35:59;4.05;;;2.13;;
9904;SDS011;4991;43.566;27.820;2023-04-15T14:38:25;5.28;;;2.90;;
9904;SDS011;4991;43.566;27.820;2023-04-15T14:40:51;4.10;;;2.35;;
9904;SDS011;4991;43.566;27.820;2023-04-15T14:43:16;2.80;;;1.70;;
9904;SDS011;4991;43.566;27.820;2023-04-15T14:45:42;2.85;;;1.77;;
9904;SDS011;4991;43.566;27.820;2023-04-15T14:48:08;2.42;;;1.95;;
9904;SDS011;4991;43.566;27.820;2023-04-15T14:50:35;2.65;;;1.90;;
9904;SDS011;4991;43.566;27.820;2023-04-15T14:53:00;6.40;;;2.33;;
9904;SDS011;4991;43.566;27.820;2023-04-15T14:55:26;3.92;;;2.00;;
9904;SDS011;4991;43.566;27.820;2023-04-15T14:57:52;3.03;;;1.67;;
9904;SDS011;4991;43.566;27.820;2023-04-15T15:00:17;3.35;;;2.20;;
9904;SDS011;4991;43.566;27.820;2023-04-15T15:02:43;2.63;;;2.10;;
9904;SDS011;4991;43.566;27.820;2023-04-15T15:05:09;4.95;;;2.70;;
9904;SDS011;4991;43.566;27.820;2023-04-15T15:07:36;7.03;;;2.20;;
9904;SDS011;4991;43.566;27.820;2023-04-15T15:10:03;5.32;;;2.10;;